createdAt,value
2023-05-09T00:01:54.462Z,7.37
2023-05-09T00:04:22.310Z,6.63
2023-05-09T00:06:50.137Z,6.70
2023-05-09T00:09:19.322Z,7.20
2023-05-09T00:11:47.151Z,6.50
2023-05-09T00:14:15.022Z,6.60
2023-05-09T00:16:43.054Z,6.93
2023-05-09T00:19:11.232Z,6.97
2023-05-09T00:21:39.048Z,7.10
2023-05-09T00:24:07.670Z,6.83
2023-05-09T00:26:36.830Z,7.10
2023-05-09T00:29:04.968Z,7.60
2023-05-09T00:31:32.847Z,8.73
2023-05-09T00:34:00.702Z,7.60
2023-05-09T00:36:28.565Z,6.93
2023-05-09T00:38:56.502Z,6.40
2023-05-09T00:41:24.288Z,6.13
2023-05-09T00:43:53.425Z,6.00
2023-05-09T00:46:21.988Z,5.83
2023-05-09T00:48:49.849Z,5.20
2023-05-09T00:51:18.211Z,6.40
2023-05-09T00:53:46.519Z,6.70
2023-05-09T00:56:15.591Z,6.63
2023-05-09T00:58:43.581Z,7.13
2023-05-09T01:01:12.813Z,5.33
2023-05-09T01:03:42.327Z,5.83
2023-05-09T01:06:17.828Z,7.83
2023-05-09T01:08:54.160Z,6.83
2023-05-09T01:11:29.626Z,6.50
2023-05-09T01:14:13.118Z,10.03
2023-05-09T01:16:49.012Z,7.23
2023-05-09T01:19:37.530Z,8.27
2023-05-09T01:22:10.013Z,7.67
2023-05-09T01:25:07.219Z,7.63
2023-05-09T01:27:45.171Z,8.80
2023-05-09T01:30:15.132Z,7.83
2023-05-09T01:32:44.738Z,7.73
2023-05-09T01:35:15.421Z,8.67
2023-05-09T01:37:45.587Z,9.13
2023-05-09T01:40:16.664Z,9.57
2023-05-09T01:42:48.782Z,10.80
2023-05-09T01:45:19.476Z,9.23
2023-05-09T01:47:49.894Z,8.47
2023-05-09T01:50:19.823Z,8.63
2023-05-09T01:52:50.174Z,11.40
2023-05-09T01:55:20.531Z,9.60
2023-05-09T01:57:49.926Z,9.57
2023-05-09T02:00:21.015Z,16.07
2023-05-09T02:02:49.608Z,18.27
2023-05-09T02:05:19.241Z,14.40
2023-05-09T02:07:49.405Z,6.07
2023-05-09T02:10:17.803Z,6.20
2023-05-09T02:12:45.636Z,7.07
2023-05-09T02:15:13.617Z,6.50
2023-05-09T02:17:43.275Z,6.43
2023-05-09T02:20:11.611Z,7.67
2023-05-09T02:22:41.913Z,7.83
2023-05-09T02:25:11.925Z,7.87
2023-05-09T02:27:41.406Z,8.13
2023-05-09T02:30:13.523Z,7.87
2023-05-09T02:32:44.728Z,8.57
2023-05-09T02:35:14.225Z,9.50
2023-05-09T02:37:42.635Z,8.80
2023-05-09T02:40:11.913Z,8.40
2023-05-09T02:42:39.774Z,8.53
2023-05-09T02:45:09.796Z,8.63
2023-05-09T02:47:37.936Z,9.20
2023-05-09T02:50:08.307Z,8.00
2023-05-09T02:52:36.185Z,9.00
2023-05-09T02:55:04.496Z,8.90
2023-05-09T02:57:32.373Z,8.77
2023-05-09T03:00:00.231Z,9.40
2023-05-09T03:02:28.096Z,8.73
2023-05-09T03:04:56.528Z,9.00
2023-05-09T03:07:25.726Z,8.40
2023-05-09T03:09:53.583Z,9.67
2023-05-09T03:12:21.388Z,8.50
2023-05-09T03:14:49.189Z,9.23
2023-05-09T03:17:17.336Z,10.70
2023-05-09T03:19:45.152Z,10.93
2023-05-09T03:22:12.930Z,10.70
2023-05-09T03:24:42.152Z,9.93
2023-05-09T03:27:09.968Z,10.37
2023-05-09T03:29:37.807Z,9.37
2023-05-09T03:32:06.078Z,9.73
2023-05-09T03:34:34.013Z,9.27
2023-05-09T03:37:01.837Z,8.87
2023-05-09T03:39:29.630Z,8.27
2023-05-09T03:41:58.779Z,8.20
2023-05-09T03:44:26.985Z,8.20
2023-05-09T03:46:54.989Z,8.60
2023-05-09T03:49:22.842Z,8.30
2023-05-09T03:51:50.718Z,8.07
2023-05-09T03:54:18.558Z,6.63
2023-05-09T03:56:46.365Z,7.37
2023-05-09T03:59:16.563Z,7.20
2023-05-09T04:01:45.171Z,7.40
2023-05-09T04:04:13.097Z,8.60
2023-05-09T04:06:41.207Z,8.50
2023-05-09T04:09:09.451Z,10.20
2023-05-09T04:11:37.619Z,9.03
2023-05-09T04:14:07.325Z,9.63
2023-05-09T04:16:36.618Z,11.40
2023-05-09T04:19:04.512Z,10.13
2023-05-09T04:21:32.865Z,9.20
2023-05-09T04:24:00.703Z,6.77
2023-05-09T04:26:28.642Z,7.10
2023-05-09T04:28:56.684Z,7.00
2023-05-09T04:31:24.605Z,8.10
2023-05-09T04:33:53.801Z,8.10
2023-05-09T04:36:22.195Z,8.67
2023-05-09T04:38:49.987Z,8.90
2023-05-09T04:41:17.809Z,7.60
2023-05-09T04:43:45.922Z,7.73
2023-05-09T04:46:13.720Z,8.60
2023-05-09T04:48:41.617Z,8.83
2023-05-09T04:51:10.793Z,8.90
2023-05-09T04:53:38.595Z,9.27
2023-05-09T04:56:07.218Z,8.90
2023-05-09T04:58:38.333Z,10.03
2023-05-09T05:01:06.552Z,8.87
2023-05-09T05:03:34.588Z,9.63
2023-05-09T05:06:02.395Z,9.97
2023-05-09T05:08:31.633Z,7.80
2023-05-09T05:10:59.429Z,7.50
2023-05-09T05:13:27.423Z,7.83
2023-05-09T05:15:56.397Z,6.60
2023-05-09T05:18:24.247Z,6.77
2023-05-09T05:20:52.403Z,6.67
2023-05-09T05:23:20.242Z,7.63
2023-05-09T05:25:49.768Z,6.80
2023-05-09T05:28:17.576Z,7.00
2023-05-09T05:30:45.375Z,6.83
2023-05-09T05:33:13.262Z,6.70
2023-05-09T05:35:41.056Z,6.90
2023-05-09T05:38:09.090Z,6.73
2023-05-09T05:40:36.893Z,7.73
2023-05-09T05:43:06.090Z,7.70
2023-05-09T05:45:33.909Z,6.93
2023-05-09T05:48:02.514Z,7.37
2023-05-09T05:50:30.529Z,7.73
2023-05-09T05:52:58.320Z,7.90
2023-05-09T05:55:26.138Z,8.37
2023-05-09T05:57:53.904Z,7.73
2023-05-09T06:00:23.368Z,7.17
2023-05-09T06:02:51.271Z,8.57
2023-05-09T06:05:19.285Z,10.13
2023-05-09T06:07:47.243Z,9.67
2023-05-09T06:10:15.932Z,9.67
2023-05-09T06:12:43.845Z,9.33
2023-05-09T06:15:12.716Z,9.90
2023-05-09T06:17:42.201Z,10.00
2023-05-09T06:20:10.357Z,9.97
2023-05-09T06:22:38.150Z,9.30
2023-05-09T06:25:09.494Z,9.57
2023-05-09T06:27:38.366Z,8.93
2023-05-09T06:30:21.416Z,8.13
2023-05-09T06:32:54.560Z,8.33
2023-05-09T06:35:22.574Z,7.63
2023-05-09T06:37:50.618Z,9.00
2023-05-09T06:40:18.449Z,8.10
2023-05-09T06:42:46.576Z,7.93
2023-05-09T06:45:14.664Z,7.53
2023-05-09T06:47:42.747Z,7.67
2023-05-09T06:50:12.401Z,7.50
2023-05-09T06:52:40.236Z,7.23
2023-05-09T06:55:09.635Z,7.53
2023-05-09T06:57:37.541Z,7.20
2023-05-09T07:00:06.565Z,8.43
2023-05-09T07:02:34.369Z,8.57
2023-05-09T07:05:02.350Z,8.00
2023-05-09T07:07:31.588Z,7.40
2023-05-09T07:10:09.930Z,6.53
2023-05-09T07:12:39.535Z,6.70
2023-05-09T07:15:08.763Z,6.40
2023-05-09T07:17:36.619Z,6.67
2023-05-09T07:20:05.476Z,6.90
2023-05-09T07:22:36.988Z,6.30
2023-05-09T07:25:07.113Z,6.33
2023-05-09T07:27:34.931Z,6.23
2023-05-09T07:30:02.737Z,7.00
2023-05-09T07:32:30.560Z,6.50
2023-05-09T07:34:58.539Z,6.73
2023-05-09T07:37:26.668Z,7.47
2023-05-09T07:39:55.837Z,6.10
2023-05-09T07:42:23.762Z,6.47
2023-05-09T07:44:51.548Z,5.37
2023-05-09T07:47:19.354Z,6.17
2023-05-09T07:49:48.026Z,6.70
2023-05-09T07:52:17.304Z,5.23
2023-05-09T07:54:45.257Z,4.90
2023-05-09T07:57:14.623Z,4.40
2023-05-09T07:59:42.515Z,4.90
2023-05-09T08:02:10.411Z,5.07
2023-05-09T08:04:41.186Z,4.60
2023-05-09T08:07:09.483Z,4.43
2023-05-09T08:09:37.577Z,5.13
2023-05-09T08:12:06.389Z,4.33
2023-05-09T08:14:35.580Z,4.40
2023-05-09T08:17:03.369Z,5.13
2023-05-09T08:19:31.195Z,4.63
2023-05-09T08:21:59.024Z,4.30
2023-05-09T08:24:26.828Z,4.80
2023-05-09T08:26:54.691Z,5.13
2023-05-09T08:29:22.468Z,4.33
2023-05-09T08:31:51.885Z,4.10
2023-05-09T08:34:19.693Z,4.37
2023-05-09T08:36:47.488Z,3.90
2023-05-09T08:39:15.320Z,4.37
2023-05-09T08:41:44.015Z,4.73
2023-05-09T08:44:12.444Z,4.10
2023-05-09T08:46:43.474Z,3.43
2023-05-09T08:49:13.333Z,3.30
2023-05-09T08:51:42.089Z,3.37
2023-05-09T08:54:11.242Z,3.07
2023-05-09T08:56:39.329Z,2.87
2023-05-09T08:59:07.235Z,2.70
2023-05-09T09:01:36.155Z,2.50
2023-05-09T09:04:06.422Z,2.40
2023-05-09T09:06:36.662Z,3.00
2023-05-09T09:09:08.449Z,2.70
2023-05-09T09:11:38.886Z,2.57
2023-05-09T09:14:12.933Z,2.60
2023-05-09T09:16:42.741Z,2.40
2023-05-09T09:19:14.727Z,2.77
2023-05-09T09:21:46.808Z,2.60
2023-05-09T09:24:15.568Z,3.17
2023-05-09T09:26:48.928Z,3.33
2023-05-09T09:29:18.484Z,3.10
2023-05-09T09:31:47.942Z,3.20
2023-05-09T09:34:22.285Z,3.80
2023-05-09T09:36:51.646Z,4.30
2023-05-09T09:39:19.438Z,4.47
2023-05-09T09:41:47.250Z,5.00
2023-05-09T09:44:16.981Z,4.20
2023-05-09T09:46:50.257Z,4.80
2023-05-09T09:49:20.482Z,4.67
2023-05-09T09:51:52.963Z,4.77
2023-05-09T09:54:21.286Z,5.37
2023-05-09T09:56:50.820Z,5.23
2023-05-09T09:59:20.974Z,5.60
2023-05-09T10:02:06.615Z,6.27
2023-05-09T10:04:36.715Z,6.43
2023-05-09T10:07:08.429Z,6.57
2023-05-09T10:09:38.009Z,6.20
2023-05-09T10:12:07.485Z,6.20
2023-05-09T10:14:36.313Z,6.07
2023-05-09T10:17:05.930Z,5.37
2023-05-09T10:19:34.389Z,5.37
2023-05-09T10:22:06.456Z,5.60
2023-05-09T10:24:36.757Z,5.73
2023-05-09T10:27:07.165Z,5.17
2023-05-09T10:29:36.851Z,4.90
2023-05-09T10:32:13.198Z,4.27
2023-05-09T10:34:45.572Z,3.77
2023-05-09T10:37:15.661Z,3.70
2023-05-09T10:39:43.921Z,3.10
2023-05-09T10:42:13.445Z,3.70
2023-05-09T10:44:41.372Z,3.97
2023-05-09T10:47:09.762Z,3.13
2023-05-09T10:49:37.812Z,3.70
2023-05-09T10:52:06.184Z,3.33
2023-05-09T10:54:37.922Z,3.30
2023-05-09T10:57:09.912Z,3.40
2023-05-09T10:59:40.224Z,2.53
2023-05-09T11:02:14.219Z,2.30
2023-05-09T11:04:44.094Z,2.47
2023-05-09T11:07:24.404Z,2.00
2023-05-09T11:09:54.319Z,2.30
2023-05-09T11:12:24.690Z,2.30
2023-05-09T11:14:53.829Z,2.50
2023-05-09T11:17:32.414Z,2.07
2023-05-09T11:20:06.612Z,2.20
2023-05-09T11:22:41.422Z,2.10
2023-05-09T11:25:13.178Z,1.97
2023-05-09T11:27:43.618Z,2.00
2023-05-09T11:30:14.340Z,2.27
2023-05-09T11:32:47.337Z,2.10
2023-05-09T11:35:17.641Z,1.77
2023-05-09T11:37:47.971Z,2.10
2023-05-09T11:40:18.705Z,2.00
2023-05-09T11:42:48.299Z,1.93
2023-05-09T11:45:17.889Z,1.87
2023-05-09T11:47:46.847Z,1.93
2023-05-09T11:50:16.177Z,1.87
2023-05-09T11:52:44.413Z,1.60
2023-05-09T11:55:14.125Z,2.10
2023-05-09T11:57:46.202Z,2.00
2023-05-09T12:00:16.378Z,1.70
2023-05-09T12:02:45.825Z,1.83
2023-05-09T12:05:16.013Z,2.13
2023-05-09T12:07:44.620Z,2.57
2023-05-09T12:10:14.365Z,2.20
2023-05-09T12:12:48.794Z,2.40
2023-05-09T12:15:18.097Z,1.90
2023-05-09T12:17:48.272Z,2.20
2023-05-09T12:20:18.357Z,2.60
2023-05-09T12:22:46.269Z,2.40
2023-05-09T12:25:14.283Z,2.07
2023-05-09T12:27:43.211Z,2.40
2023-05-09T12:30:15.993Z,2.20
2023-05-09T12:32:44.289Z,2.37
2023-05-09T12:35:12.387Z,2.73
2023-05-09T12:37:40.303Z,2.53
2023-05-09T12:40:12.477Z,2.20
2023-05-09T12:42:40.908Z,2.50
2023-05-09T12:45:10.643Z,2.67
2023-05-09T12:47:41.780Z,2.50
2023-05-09T12:50:13.161Z,2.53
2023-05-09T12:52:54.669Z,3.23
2023-05-09T12:55:31.658Z,3.20
2023-05-09T12:58:01.390Z,2.60
2023-05-09T13:00:29.405Z,2.77
2023-05-09T13:02:59.414Z,2.30
2023-05-09T13:05:27.321Z,2.93
2023-05-09T13:07:58.216Z,2.30
2023-05-09T13:10:28.515Z,2.40
2023-05-09T13:12:56.411Z,2.57
2023-05-09T13:15:26.729Z,2.37
2023-05-09T13:17:55.444Z,2.67
2023-05-09T13:20:24.725Z,2.90
2023-05-09T13:22:52.520Z,2.47
2023-05-09T13:25:20.470Z,2.43
2023-05-09T13:27:48.315Z,2.28
2023-05-09T13:30:16.807Z,2.33
2023-05-09T13:32:44.869Z,2.30
2023-05-09T13:35:12.875Z,2.13
2023-05-09T13:37:42.068Z,2.87
2023-05-09T13:40:11.110Z,2.17
2023-05-09T13:42:40.032Z,1.80
2023-05-09T13:45:09.313Z,2.10
2023-05-09T13:47:38.755Z,2.00
2023-05-09T13:50:08.310Z,2.13
2023-05-09T13:52:36.177Z,2.20
2023-05-09T13:55:06.013Z,2.40
2023-05-09T13:57:33.824Z,2.20
2023-05-09T14:00:01.661Z,2.40
2023-05-09T14:02:29.593Z,2.17
2023-05-09T14:04:58.873Z,2.00
2023-05-09T14:07:26.709Z,2.43
2023-05-09T14:10:08.199Z,1.97
2023-05-09T14:12:44.080Z,2.33
2023-05-09T14:15:12.324Z,2.20
2023-05-09T14:17:40.829Z,2.67
2023-05-09T14:20:09.778Z,2.37
2023-05-09T14:22:37.692Z,2.60
2023-05-09T14:25:06.136Z,2.70
2023-05-09T14:27:36.793Z,2.30
2023-05-09T14:30:06.885Z,2.30
2023-05-09T14:32:34.778Z,2.03
2023-05-09T14:35:02.765Z,2.27
2023-05-09T14:37:30.711Z,1.80
2023-05-09T14:40:05.254Z,2.00
2023-05-09T14:42:33.148Z,2.13
2023-05-09T14:45:01.068Z,1.90
2023-05-09T14:47:30.253Z,1.90
2023-05-09T14:49:58.438Z,1.97
2023-05-09T14:52:26.310Z,1.80
2023-05-09T14:54:54.124Z,1.93
2023-05-09T14:57:22.210Z,2.00
2023-05-09T14:59:50.030Z,1.83
2023-05-09T15:02:17.874Z,1.83
2023-05-09T15:04:47.056Z,1.90
2023-05-09T15:07:14.842Z,1.80
2023-05-09T15:09:42.716Z,1.67
2023-05-09T15:12:11.137Z,1.70
2023-05-09T15:14:39.519Z,1.67
2023-05-09T15:17:07.879Z,1.90
2023-05-09T15:19:36.455Z,1.93
2023-05-09T15:22:06.108Z,1.80
2023-05-09T15:24:33.941Z,1.70
2023-05-09T15:27:02.383Z,1.77
2023-05-09T15:29:30.212Z,1.97
2023-05-09T15:31:58.011Z,1.80
2023-05-09T15:34:25.918Z,1.80
2023-05-09T15:36:53.743Z,1.87
2023-05-09T15:39:22.925Z,1.83
2023-05-09T15:41:50.724Z,1.60
2023-05-09T15:44:18.548Z,1.30
2023-05-09T15:46:46.392Z,1.57
2023-05-09T15:49:14.201Z,1.07
2023-05-09T15:51:42.252Z,1.40
2023-05-09T15:54:10.135Z,1.03
2023-05-09T15:56:39.304Z,1.37
2023-05-09T15:59:07.298Z,1.50
2023-05-09T16:01:35.447Z,1.40
2023-05-09T16:04:03.419Z,1.30
2023-05-09T16:06:32.883Z,1.23
2023-05-09T16:09:02.201Z,1.13
2023-05-09T16:11:30.156Z,1.40
2023-05-09T16:13:59.698Z,1.40
2023-05-09T16:16:27.633Z,1.40
2023-05-09T16:18:55.552Z,1.30
2023-05-09T16:21:26.342Z,1.23
2023-05-09T16:23:54.176Z,1.47
2023-05-09T16:26:22.595Z,1.43
2023-05-09T16:28:50.506Z,1.50
2023-05-09T16:31:19.937Z,1.70
2023-05-09T16:33:47.929Z,1.30
2023-05-09T16:36:15.756Z,1.70
2023-05-09T16:38:43.547Z,1.70
2023-05-09T16:41:11.387Z,1.50
2023-05-09T16:43:40.164Z,1.77
2023-05-09T16:46:08.136Z,1.27
2023-05-09T16:48:37.397Z,1.43
2023-05-09T16:51:05.389Z,1.30
2023-05-09T16:53:33.216Z,1.67
2023-05-09T16:56:01.057Z,1.60
2023-05-09T16:58:28.981Z,1.90
2023-05-09T17:00:57.130Z,1.93
2023-05-09T17:03:25.131Z,1.47
2023-05-09T17:05:54.386Z,1.90
2023-05-09T17:08:22.807Z,1.60
2023-05-09T17:10:50.826Z,1.20
2023-05-09T17:13:18.702Z,1.20
2023-05-09T17:15:46.550Z,0.90
2023-05-09T17:18:22.048Z,0.97
2023-05-09T17:20:58.773Z,1.57
2023-05-09T17:23:26.785Z,1.40
2023-05-09T17:25:54.592Z,1.90
2023-05-09T17:28:22.457Z,4.30
2023-05-09T17:30:50.624Z,5.23
2023-05-09T17:33:19.300Z,5.13
2023-05-09T17:35:49.369Z,4.93
2023-05-09T17:38:18.700Z,5.30
2023-05-09T17:40:46.690Z,7.40
2023-05-09T17:43:14.515Z,6.67
2023-05-09T17:45:42.341Z,4.07
2023-05-09T17:48:10.337Z,2.90
2023-05-09T17:50:38.236Z,2.80
2023-05-09T17:53:08.478Z,2.43
2023-05-09T17:55:37.658Z,1.90
2023-05-09T17:58:06.838Z,1.30
2023-05-09T18:00:34.822Z,1.60
2023-05-09T18:03:04.016Z,2.67
2023-05-09T18:05:32.022Z,2.60
2023-05-09T18:08:01.091Z,1.33
2023-05-09T18:10:29.303Z,1.70
2023-05-09T18:12:58.466Z,1.90
2023-05-09T18:15:26.566Z,1.70
2023-05-09T18:17:54.864Z,2.07
2023-05-09T18:20:22.830Z,1.70
2023-05-09T18:22:50.692Z,2.60
2023-05-09T18:25:19.518Z,7.13
2023-05-09T18:27:47.353Z,10.50
2023-05-09T18:30:17.325Z,25.23
2023-05-09T18:32:45.369Z,10.67
2023-05-09T18:35:13.213Z,15.97
2023-05-09T18:37:41.826Z,7.37
2023-05-09T18:40:15.155Z,5.17
2023-05-09T18:42:43.515Z,4.10
2023-05-09T18:45:11.982Z,4.43
2023-05-09T18:47:41.160Z,2.70
2023-05-09T18:50:09.935Z,2.80
2023-05-09T18:52:37.849Z,2.43
2023-05-09T18:55:06.865Z,2.50
2023-05-09T18:57:34.799Z,2.80
2023-05-09T19:00:03.518Z,3.13
2023-05-09T19:02:31.731Z,2.10
2023-05-09T19:05:05.618Z,1.97
2023-05-09T19:07:34.163Z,2.07
2023-05-09T19:10:03.853Z,2.37
2023-05-09T19:12:32.327Z,2.60
2023-05-09T19:15:00.314Z,2.53
2023-05-09T19:17:28.207Z,2.70
2023-05-09T19:19:56.221Z,2.10
2023-05-09T19:22:25.390Z,2.40
2023-05-09T19:24:53.179Z,2.20
2023-05-09T19:27:21.021Z,2.47
2023-05-09T19:29:49.949Z,2.83
2023-05-09T19:32:18.467Z,6.30
2023-05-09T19:34:46.278Z,6.63
2023-05-09T19:37:14.093Z,4.50
2023-05-09T19:39:43.257Z,3.60
2023-05-09T19:42:11.254Z,3.57
2023-05-09T19:44:40.391Z,2.63
2023-05-09T19:47:09.047Z,3.50
2023-05-09T19:49:36.922Z,3.87
2023-05-09T19:52:04.915Z,3.17
2023-05-09T19:54:32.762Z,3.03
2023-05-09T19:57:01.929Z,3.33
2023-05-09T19:59:30.697Z,2.57
2023-05-09T20:01:58.755Z,2.17
2023-05-09T20:04:26.610Z,2.23
2023-05-09T20:06:54.454Z,3.07
2023-05-09T20:09:22.266Z,2.40
2023-05-09T20:11:50.504Z,2.23
2023-05-09T20:14:19.712Z,2.27
2023-05-09T20:16:47.533Z,2.23
2023-05-09T20:19:15.996Z,2.97
2023-05-09T20:21:43.827Z,2.20
2023-05-09T20:24:11.853Z,2.60
2023-05-09T20:26:39.707Z,2.20
2023-05-09T20:29:07.728Z,2.10
2023-05-09T20:31:36.935Z,2.37
2023-05-09T20:34:04.900Z,3.20
2023-05-09T20:36:32.733Z,3.27
2023-05-09T20:39:00.649Z,2.13
2023-05-09T20:41:28.470Z,1.57
2023-05-09T20:44:03.350Z,3.57
2023-05-09T20:46:31.481Z,3.00
2023-05-09T20:49:00.737Z,1.60
2023-05-09T20:51:28.534Z,2.23
2023-05-09T20:53:56.382Z,3.33
2023-05-09T20:56:26.280Z,2.20
2023-05-09T20:58:54.135Z,1.90
2023-05-09T21:01:22.380Z,2.70
2023-05-09T21:03:50.286Z,2.23
2023-05-09T21:06:19.470Z,2.20
2023-05-09T21:08:47.268Z,2.10
2023-05-09T21:11:15.152Z,2.00
2023-05-09T21:13:42.957Z,1.60
2023-05-09T21:16:10.923Z,1.90
2023-05-09T21:18:38.740Z,1.50
2023-05-09T21:21:08.041Z,0.90
2023-05-09T21:23:37.243Z,0.80
2023-05-09T21:26:05.153Z,1.00
2023-05-09T21:28:33.079Z,0.70
2023-05-09T21:31:01.637Z,0.93
2023-05-09T21:33:29.604Z,1.00
2023-05-09T21:35:58.599Z,0.63
2023-05-09T21:38:26.459Z,1.20
2023-05-09T21:40:55.659Z,0.60
2023-05-09T21:43:23.501Z,0.60
2023-05-09T21:45:51.316Z,0.30
2023-05-09T21:48:19.188Z,0.57
2023-05-09T21:50:47.023Z,0.50
2023-05-09T21:53:15.226Z,0.40
2023-05-09T21:55:43.013Z,0.43
2023-05-09T21:58:12.242Z,0.50
2023-05-09T22:00:40.237Z,0.30
2023-05-09T22:03:08.478Z,0.43
2023-05-09T22:05:36.530Z,0.30
2023-05-09T22:08:04.529Z,0.20
2023-05-09T22:10:32.427Z,0.50
2023-05-09T22:13:00.284Z,0.27
2023-05-09T22:15:29.493Z,0.40
2023-05-09T22:17:57.389Z,0.43
2023-05-09T22:20:25.547Z,0.50
2023-05-09T22:22:53.350Z,0.57
2023-05-09T22:25:21.171Z,0.10
2023-05-09T22:27:48.975Z,0.30
2023-05-09T22:30:16.958Z,0.60
2023-05-09T22:32:46.497Z,0.40
2023-05-09T22:35:14.372Z,0.50
2023-05-09T22:37:42.368Z,0.40
2023-05-09T22:40:11.016Z,0.80
2023-05-09T22:42:38.886Z,0.73
2023-05-09T22:45:07.930Z,0.87
2023-05-09T22:47:35.872Z,0.77
2023-05-09T22:50:05.394Z,0.43
2023-05-09T22:52:33.220Z,0.63
2023-05-09T22:55:01.055Z,0.40
2023-05-09T22:57:28.880Z,0.80
2023-05-09T22:59:56.714Z,0.70
2023-05-09T23:02:24.710Z,0.50
2023-05-09T23:04:52.655Z,0.40
2023-05-09T23:07:21.905Z,0.57
2023-05-09T23:09:49.728Z,0.50
2023-05-09T23:12:17.610Z,0.60
2023-05-09T23:14:45.519Z,0.40
2023-05-09T23:17:13.409Z,0.40
2023-05-09T23:19:41.300Z,0.60
2023-05-09T23:22:09.166Z,0.50
2023-05-09T23:24:38.566Z,0.60
2023-05-09T23:27:06.413Z,0.40
2023-05-09T23:29:34.259Z,0.60
2023-05-09T23:32:02.081Z,0.60
2023-05-09T23:34:30.758Z,0.80
2023-05-09T23:36:58.572Z,0.50
2023-05-09T23:39:26.858Z,0.53
2023-05-09T23:41:56.372Z,0.80
2023-05-09T23:44:24.194Z,0.50
2023-05-09T23:46:52.335Z,0.73
2023-05-09T23:49:20.660Z,0.80
2023-05-09T23:51:48.712Z,1.10
2023-05-09T23:54:17.104Z,1.13
2023-05-09T23:56:44.890Z,1.20
2023-05-09T23:59:14.049Z,0.57
